America, Illinois
Current Conditions -  °F | °C
As of 11:15 PM on Friday 21 Nov 2014 (Local Time) from KCIR Reporting Station
Overcast Overcast  
Wind Chill: 45°   Ceiling: 9000
Heat Index: 45°   Visibility: 10mi
Dew Point: 37°   Wind: 3mph
Humidity: 72%   Direction: 130°SE
Pressure: 30.28"   Gusts: NA
Location:  37.1575°N, 89.1781°W
Report Text: KCIR 220515Z AUTO 13003KT 10SM SCT065 SCT080 OVC090 07/03 A3028 RMK AO2 T00720025
Loading
Personal Weather Stations






























Interactive Weather Map New forecast layout! Learn more

10-Day Weather Forecast

Advertisements
Track Severe Weather on mobile